»·PEaware :: N637GY KLAS-KONT

N637GY :: KLAS-KONT

FLIGHT INFORMATION

Flight Status: Arrived
Operator: Privately registered:
United States
More flights under this callsign
Pilot: James B. (24167)
Aircraft: CIRRUS SR-20
(SR20)
More flights by this aircraft type
Origin: KLAS McCarran Intl
United States
Destination: KONT Ontario Intl
United States
More flights between these airports :: More routes between these airports
Route: +LAS V394 APLES V442 PDZ
File this flight plan on PilotEdge
Remarks:
Altitude:
(Current/Filed)
10,000ft
Speed:
(Current/Filed)
140kts
Departed: 09-Aug-19 09:35 PM
Arrived: 09-Aug-19 11:00 PM
Distance/Time
Traveled:
171nm/1:25
Distance/Time
To Go:
Arrived

Flight Plot

Page will automatically refresh every two minutes.

Flight plan parsing failed; only flown route is shown


Map Options




Map Legend


Flown Route
Filed Route
Departure Airport
Arrival Airport
Navaid (VOR, NDB)
Fix

Horizontal Profiles

Position Reports

Time Latitude Longitude Heading Altitude Ground
Speed
09-Aug-19 20:54 36.080619 -115.170666 131 2169ft 0kts
09-Aug-19 20:55 36.080619 -115.170666 131 2169ft 0kts
09-Aug-19 20:56 36.080619 -115.170666 131 2169ft 0kts
09-Aug-19 20:57 36.080619 -115.170666 131 2169ft 0kts
09-Aug-19 20:58 36.080619 -115.170666 131 2169ft 0kts
09-Aug-19 20:59 36.080619 -115.170666 131 2169ft 0kts
09-Aug-19 21:00 36.080619 -115.170666 131 2169ft 0kts
09-Aug-19 21:01 36.080619 -115.170666 131 2169ft 0kts
09-Aug-19 21:02 36.080619 -115.170666 131 2169ft 0kts
09-Aug-19 21:03 36.080619 -115.170666 131 2169ft 0kts
09-Aug-19 21:04 36.080619 -115.170666 131 2169ft 0kts
09-Aug-19 21:05 36.080619 -115.170666 131 2169ft 0kts
09-Aug-19 21:06 36.080619 -115.170666 131 2169ft 0kts
09-Aug-19 21:07 36.080619 -115.170666 131 2169ft 0kts
09-Aug-19 21:08 36.080619 -115.170666 131 2169ft 0kts
09-Aug-19 21:09 36.080619 -115.170666 131 2169ft 0kts
09-Aug-19 21:10 36.080619 -115.170666 131 2169ft 0kts
09-Aug-19 21:11 36.080619 -115.170666 131 2169ft 0kts
09-Aug-19 21:12 36.080619 -115.170666 131 2169ft 0kts
09-Aug-19 21:13 36.080619 -115.170666 131 2169ft 0kts
09-Aug-19 21:14 36.080619 -115.170666 131 2169ft 0kts
09-Aug-19 21:15 36.080619 -115.170666 131 2169ft 0kts
09-Aug-19 21:16 36.080619 -115.170666 131 2169ft 0kts
09-Aug-19 21:17 36.080577 -115.170545 92 2169ft 1kts
09-Aug-19 21:18 36.080731 -115.170355 213 2168ft 0kts
09-Aug-19 21:19 36.080731 -115.170355 213 2168ft 0kts
09-Aug-19 21:20 36.080731 -115.170355 213 2168ft 0kts
09-Aug-19 21:21 36.080731 -115.170355 213 2168ft 0kts
09-Aug-19 21:22 36.080727 -115.170359 200 2168ft 0kts
09-Aug-19 21:24 36.080720 -115.170324 20 2168ft 0kts
09-Aug-19 21:25 36.080720 -115.170324 20 2168ft 0kts
09-Aug-19 21:26 36.080720 -115.170324 20 2168ft 0kts
09-Aug-19 21:27 36.080721 -115.170323 109 2168ft 0kts
09-Aug-19 21:28 36.083262 -115.168220 23 2158ft 18kts
09-Aug-19 21:29 36.088509 -115.165193 20 2137ft 22kts
09-Aug-19 21:30 36.093776 -115.162211 24 2110ft 20kts
09-Aug-19 21:31 36.098578 -115.159460 22 2091ft 12kts
09-Aug-19 21:32 36.099888 -115.157484 81 2085ft 4kts
09-Aug-19 21:33 36.099882 -115.157418 102 2084ft 0kts
09-Aug-19 21:34 36.099713 -115.156763 108 2083ft 6kts
09-Aug-19 21:35 36.089570 -115.162219 205 2152ft 90kts
09-Aug-19 21:36 36.065358 -115.171572 187 2743ft 96kts
09-Aug-19 21:37 36.038782 -115.175124 188 3386ft 95kts
09-Aug-19 21:38 36.013085 -115.179351 185 4021ft 93kts
09-Aug-19 21:39 35.987578 -115.183371 185 4610ft 93kts
09-Aug-19 21:40 35.961417 -115.188255 186 5064ft 106kts
09-Aug-19 21:40 35.934244 -115.192448 183 5043ft 125kts
09-Aug-19 21:42 35.890877 -115.197881 184 5070ft 139kts
09-Aug-19 21:43 35.851418 -115.202767 186 5046ft 144kts
09-Aug-19 21:43 35.818514 -115.210512 190 5046ft 144kts
09-Aug-19 21:45 35.780960 -115.219517 187 6077ft 93kts
09-Aug-19 21:45 35.759866 -115.224025 187 6586ft 92kts
09-Aug-19 21:46 35.733727 -115.229422 186 7112ft 97kts
09-Aug-19 21:48 35.702371 -115.237684 189 7628ft 99kts
09-Aug-19 21:48 35.679687 -115.243059 189 7994ft 99kts
09-Aug-19 21:49 35.652449 -115.249497 192 8399ft 100kts
09-Aug-19 21:50 35.635750 -115.275856 241 8821ft 103kts
09-Aug-19 21:51 35.621936 -115.306313 233 9194ft 101kts
09-Aug-19 21:52 35.605765 -115.334550 232 9530ft 101kts
09-Aug-19 21:53 35.590573 -115.364280 231 9851ft 102kts
09-Aug-19 21:54 35.574929 -115.395055 233 10061ft 117kts
09-Aug-19 21:55 35.556164 -115.431865 234 10051ft 134kts
09-Aug-19 21:56 35.536555 -115.471585 236 10086ft 137kts
09-Aug-19 21:57 35.516176 -115.511447 234 10086ft 138kts
09-Aug-19 21:58 35.495505 -115.551815 234 10099ft 139kts
09-Aug-19 21:59 35.474994 -115.591892 234 10112ft 139kts
09-Aug-19 22:00 35.454379 -115.632143 234 10125ft 139kts
09-Aug-19 22:01 35.433762 -115.672354 234 10142ft 139kts
09-Aug-19 22:02 35.412751 -115.713281 234 10075ft 142kts
09-Aug-19 22:03 35.391667 -115.754334 233 10058ft 141kts
09-Aug-19 22:04 35.370819 -115.794941 231 10063ft 140kts
09-Aug-19 22:05 35.349933 -115.835421 232 10063ft 140kts
09-Aug-19 22:06 35.330068 -115.876577 230 10065ft 139kts
09-Aug-19 22:07 35.308697 -115.916376 231 10063ft 140kts
09-Aug-19 22:08 35.287660 -115.956418 231 10063ft 140kts
09-Aug-19 22:09 35.266708 -115.996641 231 10063ft 140kts
09-Aug-19 22:10 35.245766 -116.036904 233 10068ft 140kts
09-Aug-19 22:11 35.224589 -116.077642 236 10073ft 144kts
09-Aug-19 22:12 35.202867 -116.119548 236 10061ft 147kts
09-Aug-19 22:13 35.180497 -116.162624 236 9999ft 148kts
09-Aug-19 22:14 35.158405 -116.205078 236 9999ft 147kts
09-Aug-19 22:15 35.136350 -116.247391 236 9999ft 147kts
09-Aug-19 22:16 35.114637 -116.289146 234 9998ft 143kts
09-Aug-19 22:17 35.093160 -116.330265 233 9998ft 144kts
09-Aug-19 22:18 35.071281 -116.372008 232 9999ft 148kts
09-Aug-19 22:19 35.048799 -116.414842 232 9999ft 150kts
09-Aug-19 22:20 35.026062 -116.458172 232 9999ft 151kts
09-Aug-19 22:21 35.003354 -116.501409 232 9999ft 151kts
09-Aug-19 22:22 34.980500 -116.544889 233 9999ft 151kts
09-Aug-19 22:23 34.956919 -116.587314 224 10000ft 150kts
09-Aug-19 22:24 34.929565 -116.625735 224 9999ft 150kts
09-Aug-19 22:25 34.902122 -116.664307 224 9998ft 150kts
09-Aug-19 22:26 34.874531 -116.702705 224 10000ft 150kts
09-Aug-19 22:27 34.847048 -116.741240 224 10000ft 150kts
09-Aug-19 22:28 34.819766 -116.779724 222 10001ft 147kts
09-Aug-19 22:29 34.793661 -116.816336 223 10001ft 141kts
09-Aug-19 22:30 34.768305 -116.852038 223 10001ft 138kts
09-Aug-19 22:31 34.743067 -116.887423 225 9999ft 138kts
09-Aug-19 22:32 34.717363 -116.923537 226 9958ft 144kts
09-Aug-19 22:33 34.691156 -116.960335 226 9954ft 143kts
09-Aug-19 22:34 34.664987 -116.997019 226 9954ft 143kts
09-Aug-19 22:35 34.638871 -117.033581 226 9954ft 143kts
09-Aug-19 22:36 34.613292 -117.070356 226 10000ft 141kts
09-Aug-19 22:37 34.587518 -117.106703 226 10000ft 142kts
09-Aug-19 22:38 34.555834 -117.133505 204 10000ft 141kts
09-Aug-19 22:39 34.520269 -117.154484 205 9999ft 141kts
09-Aug-19 22:40 34.485065 -117.176096 206 9999ft 142kts
09-Aug-19 22:41 34.450087 -117.197905 206 9999ft 141kts
09-Aug-19 22:42 34.415137 -117.219821 206 10017ft 141kts
09-Aug-19 22:43 34.376314 -117.227252 181 9879ft 149kts
09-Aug-19 22:44 34.330673 -117.227989 181 9092ft 171kts
09-Aug-19 22:45 34.282261 -117.228800 181 8304ft 175kts
09-Aug-19 22:46 34.233763 -117.229469 181 7585ft 176kts
09-Aug-19 22:47 34.186971 -117.229736 181 7415ft 158kts
09-Aug-19 22:48 34.143345 -117.235037 191 6968ft 173kts
09-Aug-19 22:49 34.096164 -117.245609 191 6213ft 172kts
09-Aug-19 22:50 34.066601 -117.283273 246 5235ft 166kts
09-Aug-19 22:51 34.055947 -117.336830 265 4270ft 165kts
09-Aug-19 22:52 34.055021 -117.387484 268 4010ft 126kts
09-Aug-19 22:53 34.054967 -117.426497 268 3505ft 103kts
09-Aug-19 22:54 34.055019 -117.459867 268 2960ft 95kts
09-Aug-19 22:55 34.054813 -117.491391 267 2426ft 93kts
09-Aug-19 22:56 34.055101 -117.522467 269 1913ft 93kts
09-Aug-19 22:57 34.054983 -117.553511 268 1446ft 87kts
09-Aug-19 22:58 34.054964 -117.578881 268 1019ft 72kts
09-Aug-19 22:59 34.054357 -117.594003 231 917ft 17kts
09-Aug-19 23:00 34.053844 -117.597876 269 916ft 14kts
09-Aug-19 23:01 34.053840 -117.603318 271 916ft 16kts
09-Aug-19 23:02 34.053840 -117.607431 269 920ft 11kts
09-Aug-19 23:03 34.053834 -117.611348 269 924ft 12kts
09-Aug-19 23:04 34.051865 -117.612838 167 915ft 10kts
09-Aug-19 23:05 34.051424 -117.611788 25 913ft 0kts
09-Aug-19 23:06 34.051424 -117.611788 25 913ft 0kts
09-Aug-19 23:07 34.051424 -117.611788 25 913ft 0kts
09-Aug-19 23:08 34.051424 -117.611788 25 913ft 0kts
09-Aug-19 23:09 34.051424 -117.611788 25 913ft 0kts
09-Aug-19 23:10 34.051424 -117.611788 25 913ft 0kts

Navigation Log

Ident Type
Flight plan parsing failed, navigation log unavailable